sensor_id;sensor_type;location;lat;lon;timestamp;P1;durP1;ratioP1;P2;durP2;ratioP2
7045;SDS011;3564;53.326;10.356;2022-12-07T00:01:24;15.57;;;11.00;;
7045;SDS011;3564;53.326;10.356;2022-12-07T00:03:54;17.23;;;10.83;;
7045;SDS011;3564;53.326;10.356;2022-12-07T00:06:40;13.10;;;10.23;;
7045;SDS011;3564;53.326;10.356;2022-12-07T00:09:17;13.10;;;10.27;;
7045;SDS011;3564;53.326;10.356;2022-12-07T00:11:47;15.13;;;10.47;;
7045;SDS011;3564;53.326;10.356;2022-12-07T00:14:17;12.63;;;10.07;;
7045;SDS011;3564;53.326;10.356;2022-12-07T00:16:44;13.40;;;9.73;;
7045;SDS011;3564;53.326;10.356;2022-12-07T00:19:10;15.37;;;10.37;;
7045;SDS011;3564;53.326;10.356;2022-12-07T00:21:37;14.83;;;9.97;;
7045;SDS011;3564;53.326;10.356;2022-12-07T00:24:04;13.70;;;10.37;;
7045;SDS011;3564;53.326;10.356;2022-12-07T00:26:32;12.80;;;9.33;;
7045;SDS011;3564;53.326;10.356;2022-12-07T00:29:01;12.77;;;9.10;;
7045;SDS011;3564;53.326;10.356;2022-12-07T00:31:30;12.57;;;9.07;;
7045;SDS011;3564;53.326;10.356;2022-12-07T00:33:58;11.90;;;8.87;;
7045;SDS011;3564;53.326;10.356;2022-12-07T00:36:24;15.53;;;9.43;;
7045;SDS011;3564;53.326;10.356;2022-12-07T00:38:53;12.53;;;9.37;;
7045;SDS011;3564;53.326;10.356;2022-12-07T00:41:21;12.90;;;9.53;;
7045;SDS011;3564;53.326;10.356;2022-12-07T00:43:48;12.37;;;8.67;;
7045;SDS011;3564;53.326;10.356;2022-12-07T00:46:14;12.77;;;8.77;;
7045;SDS011;3564;53.326;10.356;2022-12-07T00:48:42;13.63;;;9.23;;
7045;SDS011;3564;53.326;10.356;2022-12-07T00:51:19;13.17;;;9.57;;
7045;SDS011;3564;53.326;10.356;2022-12-07T00:53:46;13.13;;;8.90;;
7045;SDS011;3564;53.326;10.356;2022-12-07T00:56:13;11.30;;;8.80;;
7045;SDS011;3564;53.326;10.356;2022-12-07T00:58:40;12.27;;;9.27;;
7045;SDS011;3564;53.326;10.356;2022-12-07T01:01:07;13.37;;;9.27;;
7045;SDS011;3564;53.326;10.356;2022-12-07T01:03:34;11.70;;;8.90;;
7045;SDS011;3564;53.326;10.356;2022-12-07T01:06:00;13.67;;;8.43;;
7045;SDS011;3564;53.326;10.356;2022-12-07T01:08:26;12.77;;;9.23;;
7045;SDS011;3564;53.326;10.356;2022-12-07T01:11:00;11.63;;;8.73;;
7045;SDS011;3564;53.326;10.356;2022-12-07T01:13:32;13.40;;;8.40;;
7045;SDS011;3564;53.326;10.356;2022-12-07T01:15:59;12.23;;;8.00;;
7045;SDS011;3564;53.326;10.356;2022-12-07T01:18:27;12.40;;;8.13;;
7045;SDS011;3564;53.326;10.356;2022-12-07T01:21:11;11.70;;;8.07;;
7045;SDS011;3564;53.326;10.356;2022-12-07T01:23:38;11.50;;;7.97;;
7045;SDS011;3564;53.326;10.356;2022-12-07T01:26:10;11.87;;;8.70;;
7045;SDS011;3564;53.326;10.356;2022-12-07T01:28:37;12.97;;;8.50;;
7045;SDS011;3564;53.326;10.356;2022-12-07T01:31:03;11.57;;;7.93;;
7045;SDS011;3564;53.326;10.356;2022-12-07T01:33:32;11.57;;;8.37;;
7045;SDS011;3564;53.326;10.356;2022-12-07T01:36:00;10.67;;;8.20;;
7045;SDS011;3564;53.326;10.356;2022-12-07T01:38:30;16.00;;;8.73;;
7045;SDS011;3564;53.326;10.356;2022-12-07T01:40:57;13.33;;;8.60;;
7045;SDS011;3564;53.326;10.356;2022-12-07T01:43:25;13.00;;;8.60;;
7045;SDS011;3564;53.326;10.356;2022-12-07T01:45:53;11.40;;;8.17;;
7045;SDS011;3564;53.326;10.356;2022-12-07T01:48:21;14.37;;;8.63;;
7045;SDS011;3564;53.326;10.356;2022-12-07T01:50:53;12.47;;;8.27;;
7045;SDS011;3564;53.326;10.356;2022-12-07T01:53:21;11.40;;;8.00;;
7045;SDS011;3564;53.326;10.356;2022-12-07T01:55:52;10.83;;;7.67;;
7045;SDS011;3564;53.326;10.356;2022-12-07T01:58:18;10.33;;;7.93;;
7045;SDS011;3564;53.326;10.356;2022-12-07T02:00:44;10.23;;;7.97;;
7045;SDS011;3564;53.326;10.356;2022-12-07T02:03:11;12.93;;;7.63;;
7045;SDS011;3564;53.326;10.356;2022-12-07T02:05:57;10.23;;;7.50;;
7045;SDS011;3564;53.326;10.356;2022-12-07T02:08:24;12.30;;;8.33;;
7045;SDS011;3564;53.326;10.356;2022-12-07T02:10:50;10.37;;;7.73;;
7045;SDS011;3564;53.326;10.356;2022-12-07T02:13:16;11.17;;;8.13;;
7045;SDS011;3564;53.326;10.356;2022-12-07T02:16:01;13.10;;;8.43;;
7045;SDS011;3564;53.326;10.356;2022-12-07T02:19:13;13.03;;;8.27;;
7045;SDS011;3564;53.326;10.356;2022-12-07T02:24:57;11.27;;;7.47;;
7045;SDS011;3564;53.326;10.356;2022-12-07T02:30:26;10.87;;;7.63;;
7045;SDS011;3564;53.326;10.356;2022-12-07T02:32:57;10.97;;;7.33;;
7045;SDS011;3564;53.326;10.356;2022-12-07T02:35:34;10.40;;;7.00;;
7045;SDS011;3564;53.326;10.356;2022-12-07T02:38:11;9.60;;;6.83;;
7045;SDS011;3564;53.326;10.356;2022-12-07T02:40:51;8.93;;;6.47;;
7045;SDS011;3564;53.326;10.356;2022-12-07T02:43:25;11.10;;;7.10;;
7045;SDS011;3564;53.326;10.356;2022-12-07T02:46:13;7.57;;;5.93;;
7045;SDS011;3564;53.326;10.356;2022-12-07T02:48:45;11.17;;;7.00;;
7045;SDS011;3564;53.326;10.356;2022-12-07T02:51:11;10.00;;;6.83;;
7045;SDS011;3564;53.326;10.356;2022-12-07T02:53:38;8.80;;;6.17;;
7045;SDS011;3564;53.326;10.356;2022-12-07T03:07:05;6.50;;;5.03;;
7045;SDS011;3564;53.326;10.356;2022-12-07T03:13:30;10.83;;;5.20;;
7045;SDS011;3564;53.326;10.356;2022-12-07T03:15:53;10.60;;;5.30;;
7045;SDS011;3564;53.326;10.356;2022-12-07T03:18:29;7.03;;;4.30;;
7045;SDS011;3564;53.326;10.356;2022-12-07T03:21:00;8.87;;;4.77;;
7045;SDS011;3564;53.326;10.356;2022-12-07T03:23:29;5.87;;;4.20;;
7045;SDS011;3564;53.326;10.356;2022-12-07T03:26:00;6.87;;;4.23;;
7045;SDS011;3564;53.326;10.356;2022-12-07T03:28:29;6.00;;;4.00;;
7045;SDS011;3564;53.326;10.356;2022-12-07T03:31:01;5.97;;;3.97;;
7045;SDS011;3564;53.326;10.356;2022-12-07T03:36:26;6.03;;;4.07;;
7045;SDS011;3564;53.326;10.356;2022-12-07T03:39:09;5.67;;;3.40;;
7045;SDS011;3564;53.326;10.356;2022-12-07T03:41:42;5.30;;;3.30;;
7045;SDS011;3564;53.326;10.356;2022-12-07T03:44:08;7.60;;;3.77;;
7045;SDS011;3564;53.326;10.356;2022-12-07T03:46:35;4.67;;;3.57;;
7045;SDS011;3564;53.326;10.356;2022-12-07T03:49:15;6.30;;;3.33;;
7045;SDS011;3564;53.326;10.356;2022-12-07T03:54:34;6.23;;;3.10;;
7045;SDS011;3564;53.326;10.356;2022-12-07T03:57:04;4.40;;;2.90;;
7045;SDS011;3564;53.326;10.356;2022-12-07T03:59:32;3.60;;;3.00;;
7045;SDS011;3564;53.326;10.356;2022-12-07T04:02:02;4.33;;;3.00;;
7045;SDS011;3564;53.326;10.356;2022-12-07T04:04:29;8.07;;;3.43;;
7045;SDS011;3564;53.326;10.356;2022-12-07T04:06:55;5.10;;;3.07;;
7045;SDS011;3564;53.326;10.356;2022-12-07T04:09:21;5.20;;;2.60;;
7045;SDS011;3564;53.326;10.356;2022-12-07T04:11:47;6.37;;;3.13;;
7045;SDS011;3564;53.326;10.356;2022-12-07T04:14:12;4.27;;;2.80;;
7045;SDS011;3564;53.326;10.356;2022-12-07T04:16:44;4.47;;;3.07;;
7045;SDS011;3564;53.326;10.356;2022-12-07T04:19:10;5.30;;;3.07;;
7045;SDS011;3564;53.326;10.356;2022-12-07T04:21:36;7.23;;;2.90;;
7045;SDS011;3564;53.326;10.356;2022-12-07T04:24:02;6.43;;;2.47;;
7045;SDS011;3564;53.326;10.356;2022-12-07T04:26:28;4.40;;;3.13;;
7045;SDS011;3564;53.326;10.356;2022-12-07T04:28:54;4.30;;;3.00;;
7045;SDS011;3564;53.326;10.356;2022-12-07T04:31:19;7.03;;;3.00;;
7045;SDS011;3564;53.326;10.356;2022-12-07T04:33:45;4.57;;;3.10;;
7045;SDS011;3564;53.326;10.356;2022-12-07T04:36:10;7.40;;;3.20;;
7045;SDS011;3564;53.326;10.356;2022-12-07T04:38:36;3.80;;;3.10;;
7045;SDS011;3564;53.326;10.356;2022-12-07T04:41:08;8.90;;;3.13;;
7045;SDS011;3564;53.326;10.356;2022-12-07T04:43:34;5.60;;;2.60;;
7045;SDS011;3564;53.326;10.356;2022-12-07T04:46:01;6.30;;;3.10;;
7045;SDS011;3564;53.326;10.356;2022-12-07T04:48:28;6.10;;;2.87;;
7045;SDS011;3564;53.326;10.356;2022-12-07T04:50:53;4.50;;;2.40;;
7045;SDS011;3564;53.326;10.356;2022-12-07T04:53:19;3.70;;;2.60;;
7045;SDS011;3564;53.326;10.356;2022-12-07T04:55:45;4.30;;;2.43;;
7045;SDS011;3564;53.326;10.356;2022-12-07T04:58:11;3.83;;;2.33;;
7045;SDS011;3564;53.326;10.356;2022-12-07T05:00:37;3.80;;;2.70;;
7045;SDS011;3564;53.326;10.356;2022-12-07T05:03:04;4.57;;;2.30;;
7045;SDS011;3564;53.326;10.356;2022-12-07T05:05:30;4.13;;;2.50;;
7045;SDS011;3564;53.326;10.356;2022-12-07T05:07:56;4.07;;;2.30;;
7045;SDS011;3564;53.326;10.356;2022-12-07T05:10:21;4.43;;;2.50;;
7045;SDS011;3564;53.326;10.356;2022-12-07T05:12:47;2.87;;;2.20;;
7045;SDS011;3564;53.326;10.356;2022-12-07T05:15:13;3.53;;;2.20;;
7045;SDS011;3564;53.326;10.356;2022-12-07T05:17:40;2.80;;;2.03;;
7045;SDS011;3564;53.326;10.356;2022-12-07T05:20:06;5.00;;;2.40;;
7045;SDS011;3564;53.326;10.356;2022-12-07T05:22:32;3.07;;;1.87;;
7045;SDS011;3564;53.326;10.356;2022-12-07T05:24:57;3.57;;;1.90;;
7045;SDS011;3564;53.326;10.356;2022-12-07T05:27:23;4.93;;;2.20;;
7045;SDS011;3564;53.326;10.356;2022-12-07T05:29:51;3.27;;;2.00;;
7045;SDS011;3564;53.326;10.356;2022-12-07T05:32:17;4.23;;;2.20;;
7045;SDS011;3564;53.326;10.356;2022-12-07T05:34:43;3.37;;;1.83;;
7045;SDS011;3564;53.326;10.356;2022-12-07T05:37:08;3.77;;;2.17;;
7045;SDS011;3564;53.326;10.356;2022-12-07T05:39:34;3.13;;;2.13;;
7045;SDS011;3564;53.326;10.356;2022-12-07T05:41:59;4.20;;;2.00;;
7045;SDS011;3564;53.326;10.356;2022-12-07T05:44:37;4.97;;;2.07;;
7045;SDS011;3564;53.326;10.356;2022-12-07T05:47:04;3.40;;;2.20;;
7045;SDS011;3564;53.326;10.356;2022-12-07T05:49:30;3.13;;;1.80;;
7045;SDS011;3564;53.326;10.356;2022-12-07T05:51:56;5.57;;;2.47;;
7045;SDS011;3564;53.326;10.356;2022-12-07T05:54:22;3.00;;;2.23;;
7045;SDS011;3564;53.326;10.356;2022-12-07T05:56:48;3.20;;;2.00;;
7045;SDS011;3564;53.326;10.356;2022-12-07T05:59:13;4.23;;;2.30;;
7045;SDS011;3564;53.326;10.356;2022-12-07T06:01:51;4.67;;;2.20;;
7045;SDS011;3564;53.326;10.356;2022-12-07T06:04:19;4.23;;;2.73;;
7045;SDS011;3564;53.326;10.356;2022-12-07T06:06:45;2.30;;;2.00;;
7045;SDS011;3564;53.326;10.356;2022-12-07T06:09:11;3.30;;;2.03;;
7045;SDS011;3564;53.326;10.356;2022-12-07T06:11:37;3.03;;;2.23;;
7045;SDS011;3564;53.326;10.356;2022-12-07T06:14:22;2.53;;;2.20;;
7045;SDS011;3564;53.326;10.356;2022-12-07T06:16:48;4.90;;;2.30;;
7045;SDS011;3564;53.326;10.356;2022-12-07T06:19:14;2.47;;;1.77;;
7045;SDS011;3564;53.326;10.356;2022-12-07T06:21:39;3.70;;;2.10;;
7045;SDS011;3564;53.326;10.356;2022-12-07T06:24:05;3.60;;;1.93;;
7045;SDS011;3564;53.326;10.356;2022-12-07T06:26:31;6.03;;;2.07;;
7045;SDS011;3564;53.326;10.356;2022-12-07T06:28:57;5.00;;;2.23;;
7045;SDS011;3564;53.326;10.356;2022-12-07T06:31:22;3.03;;;2.00;;
7045;SDS011;3564;53.326;10.356;2022-12-07T06:33:48;3.93;;;2.07;;
7045;SDS011;3564;53.326;10.356;2022-12-07T06:36:14;4.07;;;2.40;;
7045;SDS011;3564;53.326;10.356;2022-12-07T06:38:39;2.87;;;2.10;;
7045;SDS011;3564;53.326;10.356;2022-12-07T06:41:05;4.27;;;2.30;;
7045;SDS011;3564;53.326;10.356;2022-12-07T06:43:31;5.73;;;1.83;;
7045;SDS011;3564;53.326;10.356;2022-12-07T06:45:57;3.70;;;2.20;;
7045;SDS011;3564;53.326;10.356;2022-12-07T06:48:25;4.37;;;2.77;;
7045;SDS011;3564;53.326;10.356;2022-12-07T06:50:51;4.13;;;2.33;;
7045;SDS011;3564;53.326;10.356;2022-12-07T06:53:16;3.77;;;2.40;;
7045;SDS011;3564;53.326;10.356;2022-12-07T06:55:42;4.23;;;2.30;;
7045;SDS011;3564;53.326;10.356;2022-12-07T06:58:07;4.30;;;2.13;;
7045;SDS011;3564;53.326;10.356;2022-12-07T07:00:33;2.70;;;2.37;;
7045;SDS011;3564;53.326;10.356;2022-12-07T07:03:00;3.33;;;2.47;;
7045;SDS011;3564;53.326;10.356;2022-12-07T07:05:26;3.73;;;2.37;;
7045;SDS011;3564;53.326;10.356;2022-12-07T07:07:51;4.20;;;2.30;;
7045;SDS011;3564;53.326;10.356;2022-12-07T07:10:17;6.07;;;2.50;;
7045;SDS011;3564;53.326;10.356;2022-12-07T07:12:44;4.30;;;2.40;;
7045;SDS011;3564;53.326;10.356;2022-12-07T07:15:10;4.03;;;2.23;;
7045;SDS011;3564;53.326;10.356;2022-12-07T07:17:37;3.37;;;2.23;;
7045;SDS011;3564;53.326;10.356;2022-12-07T07:20:03;3.33;;;2.00;;
7045;SDS011;3564;53.326;10.356;2022-12-07T07:22:29;3.60;;;2.03;;
7045;SDS011;3564;53.326;10.356;2022-12-07T07:24:55;2.93;;;2.10;;
7045;SDS011;3564;53.326;10.356;2022-12-07T07:27:21;8.57;;;2.60;;
7045;SDS011;3564;53.326;10.356;2022-12-07T07:29:46;4.37;;;2.10;;
7045;SDS011;3564;53.326;10.356;2022-12-07T07:32:12;4.03;;;2.10;;
7045;SDS011;3564;53.326;10.356;2022-12-07T07:34:37;2.93;;;1.90;;
7045;SDS011;3564;53.326;10.356;2022-12-07T07:37:03;6.23;;;3.20;;
7045;SDS011;3564;53.326;10.356;2022-12-07T07:39:28;4.70;;;2.30;;
7045;SDS011;3564;53.326;10.356;2022-12-07T07:41:54;3.50;;;2.00;;
7045;SDS011;3564;53.326;10.356;2022-12-07T07:44:19;3.13;;;2.27;;
7045;SDS011;3564;53.326;10.356;2022-12-07T07:46:45;3.83;;;2.20;;
7045;SDS011;3564;53.326;10.356;2022-12-07T07:49:10;3.23;;;2.00;;
7045;SDS011;3564;53.326;10.356;2022-12-07T07:51:36;2.70;;;2.20;;
7045;SDS011;3564;53.326;10.356;2022-12-07T07:54:02;3.00;;;2.10;;
7045;SDS011;3564;53.326;10.356;2022-12-07T07:56:28;3.97;;;2.23;;
7045;SDS011;3564;53.326;10.356;2022-12-07T07:58:54;5.30;;;2.20;;
7045;SDS011;3564;53.326;10.356;2022-12-07T08:01:19;2.73;;;1.90;;
7045;SDS011;3564;53.326;10.356;2022-12-07T08:03:48;2.33;;;2.00;;
7045;SDS011;3564;53.326;10.356;2022-12-07T08:06:14;4.10;;;2.33;;
7045;SDS011;3564;53.326;10.356;2022-12-07T08:08:39;2.57;;;2.20;;
7045;SDS011;3564;53.326;10.356;2022-12-07T08:11:05;6.57;;;2.40;;
7045;SDS011;3564;53.326;10.356;2022-12-07T08:13:32;5.33;;;2.30;;
7045;SDS011;3564;53.326;10.356;2022-12-07T08:15:58;4.70;;;2.37;;
7045;SDS011;3564;53.326;10.356;2022-12-07T08:18:27;3.83;;;2.27;;
7045;SDS011;3564;53.326;10.356;2022-12-07T08:20:58;3.17;;;2.33;;
7045;SDS011;3564;53.326;10.356;2022-12-07T08:23:25;2.93;;;2.10;;
7045;SDS011;3564;53.326;10.356;2022-12-07T08:25:51;2.90;;;2.10;;
7045;SDS011;3564;53.326;10.356;2022-12-07T08:28:17;2.83;;;2.27;;
7045;SDS011;3564;53.326;10.356;2022-12-07T08:30:42;4.17;;;2.40;;
7045;SDS011;3564;53.326;10.356;2022-12-07T08:33:09;2.53;;;1.90;;
7045;SDS011;3564;53.326;10.356;2022-12-07T08:35:35;3.50;;;2.10;;
7045;SDS011;3564;53.326;10.356;2022-12-07T08:38:01;2.07;;;1.83;;
7045;SDS011;3564;53.326;10.356;2022-12-07T08:40:29;4.10;;;2.17;;
7045;SDS011;3564;53.326;10.356;2022-12-07T08:42:55;2.93;;;2.00;;
7045;SDS011;3564;53.326;10.356;2022-12-07T08:45:22;5.27;;;2.93;;
7045;SDS011;3564;53.326;10.356;2022-12-07T08:47:52;4.60;;;2.67;;
7045;SDS011;3564;53.326;10.356;2022-12-07T08:50:31;4.43;;;1.83;;
7045;SDS011;3564;53.326;10.356;2022-12-07T08:52:57;3.13;;;2.03;;
7045;SDS011;3564;53.326;10.356;2022-12-07T08:55:24;3.03;;;2.00;;
7045;SDS011;3564;53.326;10.356;2022-12-07T08:57:52;2.93;;;2.10;;
7045;SDS011;3564;53.326;10.356;2022-12-07T09:00:18;3.37;;;2.00;;
7045;SDS011;3564;53.326;10.356;2022-12-07T09:02:45;2.60;;;1.80;;
7045;SDS011;3564;53.326;10.356;2022-12-07T09:05:11;4.70;;;2.10;;
7045;SDS011;3564;53.326;10.356;2022-12-07T09:07:40;2.77;;;1.90;;
7045;SDS011;3564;53.326;10.356;2022-12-07T09:10:08;5.53;;;2.30;;
7045;SDS011;3564;53.326;10.356;2022-12-07T09:12:34;2.47;;;1.90;;
7045;SDS011;3564;53.326;10.356;2022-12-07T09:15:00;5.97;;;2.10;;
7045;SDS011;3564;53.326;10.356;2022-12-07T09:17:25;3.43;;;1.90;;
7045;SDS011;3564;53.326;10.356;2022-12-07T09:19:51;35.90;;;22.37;;
7045;SDS011;3564;53.326;10.356;2022-12-07T09:22:16;9.30;;;4.80;;
7045;SDS011;3564;53.326;10.356;2022-12-07T09:24:42;7.40;;;2.70;;
7045;SDS011;3564;53.326;10.356;2022-12-07T09:27:09;2.57;;;2.03;;
7045;SDS011;3564;53.326;10.356;2022-12-07T09:29:35;2.33;;;1.70;;
7045;SDS011;3564;53.326;10.356;2022-12-07T09:32:00;3.23;;;1.80;;
7045;SDS011;3564;53.326;10.356;2022-12-07T09:34:26;2.23;;;1.53;;
7045;SDS011;3564;53.326;10.356;2022-12-07T09:36:51;3.10;;;2.10;;
7045;SDS011;3564;53.326;10.356;2022-12-07T09:39:17;2.37;;;1.87;;
7045;SDS011;3564;53.326;10.356;2022-12-07T09:41:43;3.23;;;1.60;;
7045;SDS011;3564;53.326;10.356;2022-12-07T09:44:15;3.20;;;1.77;;
7045;SDS011;3564;53.326;10.356;2022-12-07T09:46:46;7.10;;;1.80;;
7045;SDS011;3564;53.326;10.356;2022-12-07T09:49:22;2.83;;;2.07;;
7045;SDS011;3564;53.326;10.356;2022-12-07T09:54:33;2.87;;;1.77;;
7045;SDS011;3564;53.326;10.356;2022-12-07T09:57:01;5.10;;;2.10;;
7045;SDS011;3564;53.326;10.356;2022-12-07T09:59:27;4.10;;;1.80;;
7045;SDS011;3564;53.326;10.356;2022-12-07T10:01:53;2.53;;;1.80;;
7045;SDS011;3564;53.326;10.356;2022-12-07T10:04:20;4.47;;;1.60;;
7045;SDS011;3564;53.326;10.356;2022-12-07T10:06:48;3.57;;;1.80;;
7045;SDS011;3564;53.326;10.356;2022-12-07T10:09:16;23.77;;;14.00;;
7045;SDS011;3564;53.326;10.356;2022-12-07T10:14:37;5.20;;;2.10;;
7045;SDS011;3564;53.326;10.356;2022-12-07T10:22:59;2.50;;;1.50;;
7045;SDS011;3564;53.326;10.356;2022-12-07T10:25:45;3.17;;;1.53;;
7045;SDS011;3564;53.326;10.356;2022-12-07T10:28:12;2.53;;;1.53;;
7045;SDS011;3564;53.326;10.356;2022-12-07T10:30:49;2.67;;;1.70;;
7045;SDS011;3564;53.326;10.356;2022-12-07T10:33:32;5.67;;;1.90;;
7045;SDS011;3564;53.326;10.356;2022-12-07T10:36:19;5.13;;;1.90;;
7045;SDS011;3564;53.326;10.356;2022-12-07T10:39:39;2.87;;;1.63;;
7045;SDS011;3564;53.326;10.356;2022-12-07T10:42:00;2.43;;;2.00;;
7045;SDS011;3564;53.326;10.356;2022-12-07T10:44:44;3.47;;;1.50;;
7045;SDS011;3564;53.326;10.356;2022-12-07T11:09:37;2.67;;;1.13;;
7045;SDS011;3564;53.326;10.356;2022-12-07T11:12:20;3.20;;;1.70;;
7045;SDS011;3564;53.326;10.356;2022-12-07T11:14:58;3.27;;;1.10;;
7045;SDS011;3564;53.326;10.356;2022-12-07T11:20:42;1.57;;;1.00;;
7045;SDS011;3564;53.326;10.356;2022-12-07T11:23:18;2.47;;;1.30;;
7045;SDS011;3564;53.326;10.356;2022-12-07T11:26:22;2.23;;;1.30;;
7045;SDS011;3564;53.326;10.356;2022-12-07T11:37:33;3.33;;;1.40;;
7045;SDS011;3564;53.326;10.356;2022-12-07T11:45:40;2.63;;;1.20;;
7045;SDS011;3564;53.326;10.356;2022-12-07T11:50:42;5.80;;;1.80;;
7045;SDS011;3564;53.326;10.356;2022-12-07T11:53:18;1.90;;;1.60;;
7045;SDS011;3564;53.326;10.356;2022-12-07T11:55:57;2.20;;;1.27;;
7045;SDS011;3564;53.326;10.356;2022-12-07T11:58:33;1.87;;;1.30;;
7045;SDS011;3564;53.326;10.356;2022-12-07T12:04:12;3.37;;;1.37;;
7045;SDS011;3564;53.326;10.356;2022-12-07T12:09:04;8.70;;;4.10;;
7045;SDS011;3564;53.326;10.356;2022-12-07T12:25:44;4.97;;;1.73;;
7045;SDS011;3564;53.326;10.356;2022-12-07T12:28:49;6.43;;;2.73;;
7045;SDS011;3564;53.326;10.356;2022-12-07T12:31:28;9.60;;;2.67;;
7045;SDS011;3564;53.326;10.356;2022-12-07T12:34:02;9.23;;;3.03;;
7045;SDS011;3564;53.326;10.356;2022-12-07T12:39:13;5.77;;;2.53;;
7045;SDS011;3564;53.326;10.356;2022-12-07T12:54:21;7.53;;;2.87;;
7045;SDS011;3564;53.326;10.356;2022-12-07T12:56:49;4.83;;;1.90;;
7045;SDS011;3564;53.326;10.356;2022-12-07T12:59:29;7.27;;;2.10;;
7045;SDS011;3564;53.326;10.356;2022-12-07T13:02:07;4.77;;;1.73;;
7045;SDS011;3564;53.326;10.356;2022-12-07T13:15:50;5.33;;;1.80;;
7045;SDS011;3564;53.326;10.356;2022-12-07T13:23:39;3.43;;;1.80;;
7045;SDS011;3564;53.326;10.356;2022-12-07T13:26:22;5.53;;;1.80;;
7045;SDS011;3564;53.326;10.356;2022-12-07T13:31:39;5.37;;;1.70;;
7045;SDS011;3564;53.326;10.356;2022-12-07T13:37:30;3.90;;;1.63;;
7045;SDS011;3564;53.326;10.356;2022-12-07T13:39:59;6.77;;;2.13;;
7045;SDS011;3564;53.326;10.356;2022-12-07T13:42:31;6.97;;;2.07;;
7045;SDS011;3564;53.326;10.356;2022-12-07T13:44:59;3.73;;;2.33;;
7045;SDS011;3564;53.326;10.356;2022-12-07T13:47:49;3.93;;;1.90;;
7045;SDS011;3564;53.326;10.356;2022-12-07T13:50:29;5.37;;;2.83;;
7045;SDS011;3564;53.326;10.356;2022-12-07T13:52:56;2.63;;;2.30;;
7045;SDS011;3564;53.326;10.356;2022-12-07T13:55:24;6.53;;;2.87;;
7045;SDS011;3564;53.326;10.356;2022-12-07T13:57:52;5.03;;;2.30;;
7045;SDS011;3564;53.326;10.356;2022-12-07T14:00:23;6.07;;;2.20;;
7045;SDS011;3564;53.326;10.356;2022-12-07T14:05:25;3.20;;;1.50;;
7045;SDS011;3564;53.326;10.356;2022-12-07T14:08:02;4.20;;;1.93;;
7045;SDS011;3564;53.326;10.356;2022-12-07T14:16:00;4.87;;;1.93;;
7045;SDS011;3564;53.326;10.356;2022-12-07T14:18:45;12.23;;;2.83;;
7045;SDS011;3564;53.326;10.356;2022-12-07T14:21:14;10.47;;;6.17;;
7045;SDS011;3564;53.326;10.356;2022-12-07T14:26:42;10.67;;;7.30;;
7045;SDS011;3564;53.326;10.356;2022-12-07T14:29:22;8.37;;;6.30;;
7045;SDS011;3564;53.326;10.356;2022-12-07T14:32:18;6.20;;;3.47;;
7045;SDS011;3564;53.326;10.356;2022-12-07T14:34:55;6.87;;;2.57;;
7045;SDS011;3564;53.326;10.356;2022-12-07T14:37:47;4.67;;;1.97;;
7045;SDS011;3564;53.326;10.356;2022-12-07T14:40:16;3.80;;;2.13;;
7045;SDS011;3564;53.326;10.356;2022-12-07T14:45:50;5.27;;;2.13;;
7045;SDS011;3564;53.326;10.356;2022-12-07T14:48:15;5.93;;;2.10;;
7045;SDS011;3564;53.326;10.356;2022-12-07T14:50:48;4.80;;;2.10;;
7045;SDS011;3564;53.326;10.356;2022-12-07T14:53:35;6.20;;;2.40;;
7045;SDS011;3564;53.326;10.356;2022-12-07T14:56:05;6.80;;;2.07;;
7045;SDS011;3564;53.326;10.356;2022-12-07T14:58:31;4.97;;;1.93;;
7045;SDS011;3564;53.326;10.356;2022-12-07T15:00:58;4.43;;;1.90;;
7045;SDS011;3564;53.326;10.356;2022-12-07T15:03:23;5.57;;;2.20;;
7045;SDS011;3564;53.326;10.356;2022-12-07T15:05:49;2.23;;;1.60;;
7045;SDS011;3564;53.326;10.356;2022-12-07T15:08:15;4.57;;;2.00;;
7045;SDS011;3564;53.326;10.356;2022-12-07T15:10:40;4.83;;;1.87;;
7045;SDS011;3564;53.326;10.356;2022-12-07T15:13:06;5.03;;;2.03;;
7045;SDS011;3564;53.326;10.356;2022-12-07T15:15:51;3.03;;;1.67;;
7045;SDS011;3564;53.326;10.356;2022-12-07T15:18:18;7.10;;;1.83;;
7045;SDS011;3564;53.326;10.356;2022-12-07T15:20:44;5.17;;;1.63;;
7045;SDS011;3564;53.326;10.356;2022-12-07T15:23:11;5.90;;;1.60;;
7045;SDS011;3564;53.326;10.356;2022-12-07T15:25:40;4.37;;;1.60;;
7045;SDS011;3564;53.326;10.356;2022-12-07T15:28:06;3.67;;;2.17;;
7045;SDS011;3564;53.326;10.356;2022-12-07T15:30:32;5.20;;;1.90;;
7045;SDS011;3564;53.326;10.356;2022-12-07T15:32:57;3.37;;;1.70;;
7045;SDS011;3564;53.326;10.356;2022-12-07T15:35:23;6.13;;;2.40;;
7045;SDS011;3564;53.326;10.356;2022-12-07T15:37:48;5.17;;;1.97;;
7045;SDS011;3564;53.326;10.356;2022-12-07T15:40:14;5.80;;;2.10;;
7045;SDS011;3564;53.326;10.356;2022-12-07T15:42:40;5.20;;;2.53;;
7045;SDS011;3564;53.326;10.356;2022-12-07T15:45:06;6.07;;;2.77;;
7045;SDS011;3564;53.326;10.356;2022-12-07T15:47:41;5.67;;;3.37;;
7045;SDS011;3564;53.326;10.356;2022-12-07T15:50:09;8.00;;;2.97;;
7045;SDS011;3564;53.326;10.356;2022-12-07T15:52:37;3.93;;;2.43;;
7045;SDS011;3564;53.326;10.356;2022-12-07T15:55:03;5.23;;;2.73;;
7045;SDS011;3564;53.326;10.356;2022-12-07T15:57:30;4.13;;;2.83;;
7045;SDS011;3564;53.326;10.356;2022-12-07T15:59:56;3.97;;;2.60;;
7045;SDS011;3564;53.326;10.356;2022-12-07T16:02:23;5.63;;;2.40;;
7045;SDS011;3564;53.326;10.356;2022-12-07T16:04:50;7.93;;;2.30;;
7045;SDS011;3564;53.326;10.356;2022-12-07T16:07:16;4.07;;;2.20;;
7045;SDS011;3564;53.326;10.356;2022-12-07T16:09:43;6.53;;;2.57;;
7045;SDS011;3564;53.326;10.356;2022-12-07T16:12:09;5.83;;;2.97;;
7045;SDS011;3564;53.326;10.356;2022-12-07T16:14:35;5.30;;;2.53;;
7045;SDS011;3564;53.326;10.356;2022-12-07T16:17:02;4.53;;;2.40;;
7045;SDS011;3564;53.326;10.356;2022-12-07T16:19:30;7.43;;;3.13;;
7045;SDS011;3564;53.326;10.356;2022-12-07T16:21:56;4.50;;;2.20;;
7045;SDS011;3564;53.326;10.356;2022-12-07T16:24:22;4.73;;;2.37;;
7045;SDS011;3564;53.326;10.356;2022-12-07T16:26:48;3.17;;;2.30;;
7045;SDS011;3564;53.326;10.356;2022-12-07T16:29:14;4.43;;;2.47;;
7045;SDS011;3564;53.326;10.356;2022-12-07T16:31:43;5.70;;;2.37;;
7045;SDS011;3564;53.326;10.356;2022-12-07T16:34:08;3.30;;;2.40;;
7045;SDS011;3564;53.326;10.356;2022-12-07T16:36:34;6.73;;;2.70;;
7045;SDS011;3564;53.326;10.356;2022-12-07T16:39:00;4.93;;;2.00;;
7045;SDS011;3564;53.326;10.356;2022-12-07T16:41:26;2.63;;;1.63;;
7045;SDS011;3564;53.326;10.356;2022-12-07T16:43:52;5.80;;;1.93;;
7045;SDS011;3564;53.326;10.356;2022-12-07T16:46:18;3.77;;;1.80;;
7045;SDS011;3564;53.326;10.356;2022-12-07T16:48:44;3.67;;;1.77;;
7045;SDS011;3564;53.326;10.356;2022-12-07T16:51:11;4.40;;;2.40;;
7045;SDS011;3564;53.326;10.356;2022-12-07T16:53:38;4.87;;;3.00;;
7045;SDS011;3564;53.326;10.356;2022-12-07T16:56:12;7.80;;;3.80;;
7045;SDS011;3564;53.326;10.356;2022-12-07T16:58:39;9.10;;;4.37;;
7045;SDS011;3564;53.326;10.356;2022-12-07T17:01:11;4.03;;;3.00;;
7045;SDS011;3564;53.326;10.356;2022-12-07T17:03:47;7.00;;;3.37;;
7045;SDS011;3564;53.326;10.356;2022-12-07T17:06:21;6.70;;;2.73;;
7045;SDS011;3564;53.326;10.356;2022-12-07T17:08:48;10.10;;;3.40;;
7045;SDS011;3564;53.326;10.356;2022-12-07T17:11:16;8.50;;;5.80;;
7045;SDS011;3564;53.326;10.356;2022-12-07T17:13:46;13.43;;;8.37;;
7045;SDS011;3564;53.326;10.356;2022-12-07T17:16:30;14.10;;;8.70;;
7045;SDS011;3564;53.326;10.356;2022-12-07T17:18:57;13.27;;;8.47;;
7045;SDS011;3564;53.326;10.356;2022-12-07T17:21:23;12.63;;;8.17;;
7045;SDS011;3564;53.326;10.356;2022-12-07T17:23:50;13.30;;;8.43;;
7045;SDS011;3564;53.326;10.356;2022-12-07T17:26:17;8.53;;;5.90;;
7045;SDS011;3564;53.326;10.356;2022-12-07T17:28:45;8.57;;;6.33;;
7045;SDS011;3564;53.326;10.356;2022-12-07T17:31:12;9.97;;;6.47;;
7045;SDS011;3564;53.326;10.356;2022-12-07T17:33:39;6.90;;;4.33;;
7045;SDS011;3564;53.326;10.356;2022-12-07T17:36:19;5.53;;;3.50;;
7045;SDS011;3564;53.326;10.356;2022-12-07T17:38:46;8.07;;;3.23;;
7045;SDS011;3564;53.326;10.356;2022-12-07T17:41:14;7.13;;;4.40;;
7045;SDS011;3564;53.326;10.356;2022-12-07T17:44:00;4.23;;;2.90;;